Time;durP1;ratioP1;P1;durP2;ratioP2;P2;SDS_P1;SDS_P2;PMS_P1;PMS_P2;Temp;Humidity;BMP_temperature;BMP_pressure;BME280_temperature;BME280_humidity;BME280_pressure;Samples;Min_cycle;Max_cycle;Signal;HPM_P1;HPM_P2
2022/02/09 00:02:21;;;;;;;1999.90;999.90;;;;;;;3.59;66.96;102053.09;5051227;27;98404;-69
2022/02/09 00:05:14;;;;;;;1999.90;999.90;;;;;;;3.90;65.92;102062.31;5058348;27;98552;-71
2022/02/09 00:07:49;;;;;;;1999.90;999.90;;;;;;;4.03;65.65;102054.44;5067219;27;100154;-70
2022/02/09 00:10:17;;;;;;;1999.90;999.90;;;;;;;3.75;66.67;102058.63;5038659;27;97481;-70
2022/02/09 00:12:50;;;;;;;1999.90;999.90;;;;;;;4.01;65.96;102060.41;5034646;27;97648;-70
2022/02/09 00:15:32;;;;;;;1999.90;999.90;;;;;;;3.74;66.71;102058.53;5037851;27;96937;-70
2022/02/09 00:18:09;;;;;;;1999.90;999.90;;;;;;;3.62;67.09;102052.41;5033560;27;98862;-70
2022/02/09 00:21:08;;;;;;;1999.90;999.90;;;;;;;3.54;67.38;102048.31;5071575;27;96907;-71
2022/02/09 00:23:55;;;;;;;1999.90;999.90;;;;;;;3.45;67.34;102056.50;5038319;27;98643;-70
2022/02/09 00:38:14;;;;;;;1999.90;999.90;;;;;;;3.29;67.49;102031.63;5014893;27;96912;-71
2022/02/09 01:03:09;;;;;;;1999.90;999.90;;;;;;;3.57;66.05;102053.81;5037689;27;97678;-70
2022/02/09 01:11:33;;;;;;;1999.90;999.90;;;;;;;3.26;67.93;102066.50;5038505;27;97978;-71
2022/02/09 01:39:17;;;;;;;1999.90;999.90;;;;;;;3.26;67.40;102066.50;4965045;28;98413;-69
2022/02/09 01:55:43;;;;;;;1999.90;999.90;;;;;;;3.29;67.33;102050.03;5042320;27;97883;-70
2022/02/09 01:58:11;;;;;;;1999.90;999.90;;;;;;;3.29;66.89;102045.69;5037552;27;99325;-70
2022/02/09 02:00:42;;;;;;;1999.90;999.90;;;;;;;3.31;67.01;102045.81;5035283;27;97129;-70
2022/02/09 02:03:10;;;;;;;1999.90;999.90;;;;;;;3.28;67.14;102038.59;5038611;27;97802;-71
2022/02/09 02:05:38;;;;;;;1999.90;999.90;;;;;;;3.27;66.54;102042.06;5069025;27;100447;-70
2022/02/09 02:08:09;;;;;;;1999.90;999.90;;;;;;;3.24;66.36;102032.22;5056126;27;101148;-70
2022/02/09 02:10:49;;;;;;;1999.90;999.90;;;;;;;3.24;66.72;102047.06;5037246;27;96923;-70
2022/02/09 02:13:53;;;;;;;1999.90;999.90;;;;;;;3.23;66.72;102021.59;5041165;27;98479;-68
2022/02/09 02:16:28;;;;;;;1999.90;999.90;;;;;;;3.24;66.53;102031.28;5072645;27;98900;-68
2022/02/09 02:18:59;;;;;;;1999.90;999.90;;;;;;;3.25;66.60;102027.88;5071607;27;101550;-71
2022/02/09 02:21:47;;;;;;;1999.90;999.90;;;;;;;3.24;66.44;102023.41;5042488;27;97286;-70
2022/02/09 02:27:15;;;;;;;1999.90;999.90;;;;;;;3.26;66.20;102024.41;5039978;27;98832;-71
2022/02/09 02:32:49;;;;;;;1999.90;999.90;;;;;;;3.27;66.21;102013.13;5009151;27;96853;-69
2022/02/09 02:38:49;;;;;;;1999.90;999.90;;;;;;;3.27;65.74;102010.47;5023827;27;97772;-70
2022/02/09 02:47:14;;;;;;;1999.90;999.90;;;;;;;3.23;65.65;102026.84;5040986;27;98363;-72
2022/02/09 02:58:53;;;;;;;1999.90;999.90;;;;;;;3.19;65.66;102024.81;4960088;28;98128;-70
2022/02/09 03:12:37;;;;;;;1999.90;999.90;;;;;;;3.61;63.50;102014.63;5037307;27;98668;-71
2022/02/09 03:15:20;;;;;;;1999.90;999.90;;;;;;;3.73;63.38;102015.50;5039941;27;98831;-70
2022/02/09 03:18:01;;;;;;;1999.90;999.90;;;;;;;3.46;64.22;102010.94;5030069;27;97608;-69
2022/02/09 03:20:36;;;;;;;1999.90;999.90;;;;;;;3.37;64.47;102020.81;5037474;27;97966;-71
2022/02/09 03:23:16;;;;;;;1999.90;999.90;;;;;;;3.32;64.62;102009.06;5033987;27;97728;-69
2022/02/09 03:26:04;;;;;;;1999.90;999.90;;;;;;;3.63;63.38;102006.84;5009846;22;98009;-71
2022/02/09 03:42:13;;;;;;;1999.90;999.90;;;;;;;3.38;64.35;102013.84;4983368;28;97265;-70
2022/02/09 03:42:44;;;;;;;1999.90;999.90;;;;;;;3.77;62.65;102020.16;4983537;28;97567;-69
2022/02/09 03:45:45;;;;;;;1999.90;999.90;;;;;;;3.58;63.24;102016.16;4984933;28;96947;-69
2022/02/09 03:48:27;;;;;;;1999.90;999.90;;;;;;;3.51;63.40;102009.56;4984090;28;99469;-69
2022/02/09 03:51:14;;;;;;;1999.90;999.90;;;;;;;3.48;63.70;102011.06;4982713;28;97043;-71
2022/02/09 03:54:02;;;;;;;1999.90;999.90;;;;;;;3.47;63.87;102020.69;4982589;28;98193;-71
2022/02/09 03:56:42;;;;;;;1999.90;999.90;;;;;;;3.46;63.82;102018.81;4998348;28;99594;-71
2022/02/09 03:59:13;;;;;;;1999.90;999.90;;;;;;;3.46;63.74;102018.81;4984238;28;97604;-70
2022/02/09 04:01:44;;;;;;;1999.90;999.90;;;;;;;3.48;63.98;102017.22;4983070;28;98787;-71
2022/02/09 04:04:12;;;;;;;1999.90;999.90;;;;;;;3.47;63.27;102014.50;4966012;28;96727;-70
2022/02/09 04:06:40;;;;;;;1999.90;999.90;;;;;;;3.48;63.47;102022.47;4983114;28;97925;-70
2022/02/09 04:09:12;;;;;;;1999.90;999.90;;;;;;;3.47;63.48;102020.69;4983142;28;98450;-70
2022/02/09 04:11:45;;;;;;;1999.90;999.90;;;;;;;3.46;63.54;101999.53;4984846;28;98506;-70
2022/02/09 04:14:22;;;;;;;1999.90;999.90;;;;;;;3.47;63.39;101982.91;4981200;28;97737;-72
2022/02/09 04:17:00;;;;;;;1999.90;999.90;;;;;;;3.46;63.48;101976.72;4982376;28;98903;-71
2022/02/09 04:19:36;;;;;;;1999.90;999.90;;;;;;;3.44;63.28;101967.81;4998384;28;100720;-70
2022/02/09 04:36:15;;;;;;;1999.90;999.90;;;;;;;3.43;62.95;101975.59;4981905;28;97318;-71
2022/02/09 04:38:51;;;;;;;1999.90;999.90;;;;;;;3.44;62.54;101985.34;4981807;28;100109;-71
2022/02/09 04:41:41;;;;;;;1999.90;999.90;;;;;;;3.44;62.93;101985.34;4983637;28;99308;-72
2022/02/09 04:44:34;;;;;;;1999.90;999.90;;;;;;;3.45;62.84;101982.81;4984422;28;97816;-70
2022/02/09 04:47:29;;;;;;;1999.90;999.90;;;;;;;3.45;62.97;101979.25;4984436;28;97859;-70
2022/02/09 04:55:45;;;;;;;1999.90;999.90;;;;;;;3.48;62.74;101980.38;4970628;28;98352;-71
2022/02/09 04:58:23;;;;;;;1999.90;999.90;;;;;;;3.50;62.78;101973.50;4982280;28;97161;-70
2022/02/09 05:00:58;;;;;;;1999.90;999.90;;;;;;;3.52;62.65;101982.41;4980345;28;99001;-70
2022/02/09 05:23:24;;;;;;;1999.90;999.90;;;;;;;4.05;61.04;101971.19;4984328;28;98923;-70
2022/02/09 05:26:03;;;;;;;1999.90;999.90;;;;;;;4.01;61.32;101965.59;4995416;28;99953;-70
2022/02/09 05:28:31;;;;;;;1999.90;999.90;;;;;;;4.30;60.09;101964.91;4982177;28;97254;-69
2022/02/09 05:30:58;;;;;;;1999.90;999.90;;;;;;;4.12;60.77;101957.59;4981252;28;96984;-70
2022/02/09 05:33:26;;;;;;;1999.90;999.90;;;;;;;4.10;60.97;101956.59;4981794;28;101603;-69
2022/02/09 05:35:54;;;;;;;1999.90;999.90;;;;;;;4.11;61.06;101944.34;4982842;28;97609;-70
2022/02/09 05:38:23;;;;;;;1999.90;999.90;;;;;;;4.11;61.08;101953.16;4981949;28;97640;-70
2022/02/09 05:40:50;;;;;;;1999.90;999.90;;;;;;;4.10;61.03;101951.31;4983192;28;97871;-69
2022/02/09 05:43:18;;;;;;;1999.90;999.90;;;;;;;4.10;61.03;101951.31;4969947;28;100782;-70
2022/02/09 05:46:07;;;;;;;1999.90;999.90;;;;;;;4.08;61.08;101942.41;4985104;28;99181;-70
2022/02/09 05:51:21;;;;;;;1999.90;999.90;;;;;;;4.06;61.21;101945.78;4984295;28;97277;-70
2022/02/09 05:54:03;;;;;;;1999.90;999.90;;;;;;;4.05;61.00;101939.59;4985329;28;99215;-70
2022/02/09 05:56:38;;;;;;;1999.90;999.90;;;;;;;4.04;60.97;101945.63;4984880;28;99398;-70
2022/02/09 05:59:16;;;;;;;1999.90;999.90;;;;;;;4.01;60.79;101945.44;4983446;28;97909;-69
2022/02/09 06:01:45;;;;;;;1999.90;999.90;;;;;;;4.00;60.85;101943.66;4983722;28;98252;-71
2022/02/09 06:04:14;;;;;;;1999.90;999.90;;;;;;;3.98;60.93;101945.25;4986311;28;97557;-70
2022/02/09 06:06:42;;;;;;;1999.90;999.90;;;;;;;3.95;60.75;101938.88;4985132;28;97697;-70
2022/02/09 06:09:12;;;;;;;1999.90;999.90;;;;;;;3.94;60.90;101943.22;4986596;28;98064;-70
2022/02/09 06:11:44;;;;;;;1999.90;999.90;;;;;;;3.94;60.87;101939.66;4985091;28;96841;-70
2022/02/09 06:14:39;;;;;;;1999.90;999.90;;;;;;;3.93;60.80;101940.50;4986492;28;98842;-70
2022/02/09 06:20:06;;;;;;;1999.90;999.90;;;;;;;3.90;60.46;101940.28;4944150;28;98324;-70
2022/02/09 06:22:34;;;;;;;1999.90;999.90;;;;;;;3.87;60.32;101946.28;4968410;28;98196;-70
2022/02/09 06:25:03;;;;;;;1999.90;999.90;;;;;;;3.87;60.66;101942.72;4984027;28;97737;-70
2022/02/09 06:27:31;;;;;;;1999.90;999.90;;;;;;;3.85;60.51;101937.34;4983988;28;98878;-70
2022/02/09 06:29:58;;;;;;;1999.90;999.90;;;;;;;3.84;60.71;101934.63;4985164;28;96967;-70
2022/02/09 06:32:27;;;;;;;1999.90;999.90;;;;;;;3.84;60.77;101935.50;4985864;28;96938;-71
2022/02/09 06:34:57;;;;;;;1999.90;999.90;;;;;;;3.83;60.76;101932.78;4983265;28;98843;-70
2022/02/09 06:37:35;;;;;;;1999.90;999.90;;;;;;;3.82;60.37;101945.06;4983754;28;98904;-70
2022/02/09 06:40:05;;;;;;;1999.90;999.90;;;;;;;3.82;60.76;101947.69;5001491;28;99116;-70
2022/02/09 06:42:34;;;;;;;1999.90;999.90;;;;;;;3.83;60.49;101957.41;4966864;28;97837;-71
2022/02/09 06:45:08;;;;;;;1999.90;999.90;;;;;;;3.86;60.49;101959.34;4967501;28;100883;-70
2022/02/09 06:47:37;;;;;;;1999.90;999.90;;;;;;;3.82;60.27;101971.38;4984908;28;98330;-69
2022/02/09 06:50:12;;;;;;;1999.90;999.90;;;;;;;3.79;60.18;101958.00;4985764;28;96905;-70
2022/02/09 06:52:44;;;;;;;1999.90;999.90;;;;;;;3.79;60.29;101958.00;4983342;28;97326;-71
2022/02/09 06:55:17;;;;;;;1999.90;999.90;;;;;;;3.82;60.40;101954.66;4981328;28;98229;-70
2022/02/09 06:57:59;;;;;;;1999.90;999.90;;;;;;;3.84;60.30;101951.31;4982470;28;98885;-70
2022/02/09 07:00:29;;;;;;;1999.90;999.90;;;;;;;3.84;59.91;101951.31;4982514;28;96971;-70
2022/02/09 07:02:57;;;;;;;1999.90;999.90;;;;;;;3.83;59.96;101957.41;5000049;28;98010;-71
2022/02/09 07:05:25;;;;;;;1999.90;999.90;;;;;;;3.82;60.05;101931.91;4980656;28;98916;-70
2022/02/09 07:07:53;;;;;;;1999.90;999.90;;;;;;;3.80;59.92;101936.16;4983546;28;98449;-70
2022/02/09 07:10:22;;;;;;;1999.90;999.90;;;;;;;3.82;59.80;101931.91;4984522;28;97105;-70
2022/02/09 07:12:49;;;;;;;1999.90;999.90;;;;;;;3.83;59.77;101933.69;4983918;28;98758;-70
2022/02/09 07:15:26;;;;;;;1999.90;999.90;;;;;;;3.84;59.88;101930.25;4985650;28;97797;-70
2022/02/09 07:17:54;;;;;;;1999.90;999.90;;;;;;;3.85;60.02;101937.34;4984591;28;97202;-70
2022/02/09 07:20:25;;;;;;;1999.90;999.90;;;;;;;3.86;59.90;101933.00;4986097;28;96776;-71
2022/02/09 07:22:56;;;;;;;1999.90;999.90;;;;;;;3.87;59.47;101937.44;4988228;28;97257;-70
2022/02/09 07:25:31;;;;;;;1999.90;999.90;;;;;;;3.83;59.38;101933.69;4981842;28;97935;-70
2022/02/09 07:28:02;;;;;;;1999.90;999.90;;;;;;;3.84;59.57;101934.63;4984375;28;96872;-70
2022/02/09 07:30:30;;;;;;;1999.90;999.90;;;;;;;3.83;59.35;101917.91;4981859;28;97290;-69
2022/02/09 07:32:59;;;;;;;1999.90;999.90;;;;;;;3.84;59.62;101927.63;4983438;28;97305;-70
2022/02/09 07:35:27;;;;;;;1999.90;999.90;;;;;;;3.82;59.35;101918.72;4983448;28;100304;-71
2022/02/09 07:37:54;;;;;;;1999.90;999.90;;;;;;;3.80;59.37;101922.97;4983575;28;98902;-70
2022/02/09 07:40:22;;;;;;;1999.90;999.90;;;;;;;3.80;59.50;101925.63;4984400;28;96971;-71
2022/02/09 07:42:54;;;;;;;1999.90;999.90;;;;;;;3.80;59.44;101922.97;4983915;28;97962;-71
2022/02/09 07:45:58;;;;;;;1999.90;999.90;;;;;;;3.81;59.62;101924.78;4983830;28;97979;-70
2022/02/09 07:48:38;;;;;;;1999.90;999.90;;;;;;;3.80;59.31;101922.97;4979497;28;97560;-70
2022/02/09 07:51:37;;;;;;;1999.90;999.90;;;;;;;3.81;59.39;101921.22;4978731;28;98806;-70
2022/02/09 07:54:04;;;;;;;1999.90;999.90;;;;;;;3.81;59.35;101929.13;4981618;28;96972;-70
2022/02/09 07:56:35;;;;;;;1999.90;999.90;;;;;;;3.81;59.42;101927.41;4977761;28;100851;-71
2022/02/09 07:59:04;;;;;;;1999.90;999.90;;;;;;;3.82;59.33;101925.72;4981515;28;100723;-72
2022/02/09 08:01:32;;;;;;;1999.90;999.90;;;;;;;3.82;59.37;101933.59;4973451;28;97848;-70
2022/02/09 08:04:00;;;;;;;1999.90;999.90;;;;;;;3.81;59.31;101930.06;4973298;28;97730;-71
2022/02/09 08:06:27;;;;;;;1999.90;999.90;;;;;;;3.82;59.01;101929.25;4978250;28;98974;-71
2022/02/09 08:08:58;;;;;;;1999.90;999.90;;;;;;;3.82;59.29;101926.63;4974408;28;100576;-71
2022/02/09 08:11:32;;;;;;;1999.90;999.90;;;;;;;3.82;59.04;101915.19;4977378;28;97588;-71
2022/02/09 08:28:44;;;;;;;1999.90;999.90;;;;;;;3.67;59.30;101922.97;4972832;28;98942;-71
2022/02/09 08:34:06;;;;;;;1999.90;999.90;;;;;;;3.56;59.01;101917.75;4959503;28;98363;-71
2022/02/09 08:36:34;;;;;;;1999.90;999.90;;;;;;;3.53;59.57;101907.91;4982161;28;97513;-70
2022/02/09 08:39:03;;;;;;;1999.90;999.90;;;;;;;3.50;59.38;101912.06;4984364;28;97576;-71
2022/02/09 08:41:30;;;;;;;1999.90;999.90;;;;;;;3.46;59.48;101895.16;4981590;28;98442;-71
2022/02/09 08:43:58;;;;;;;1999.90;999.90;;;;;;;3.45;59.45;101895.06;4984247;28;98925;-71
2022/02/09 08:46:26;;;;;;;1999.90;999.90;;;;;;;3.44;59.70;101909.94;4982607;28;98194;-71
2022/02/09 08:48:54;;;;;;;1999.90;999.90;;;;;;;3.43;59.76;101908.13;4982903;28;98105;-71
2022/02/09 08:51:24;;;;;;;1999.90;999.90;;;;;;;3.43;59.50;101913.38;4980574;28;99398;-71
2022/02/09 08:53:52;;;;;;;1999.90;999.90;;;;;;;3.44;59.41;101894.16;4986072;28;97305;-71
2022/02/09 08:56:19;;;;;;;1999.90;999.90;;;;;;;3.44;59.87;101893.25;4983772;28;96860;-71
2022/02/09 08:58:47;;;;;;;1999.90;999.90;;;;;;;3.45;59.72;101898.63;4985977;28;98131;-71
2022/02/09 09:01:32;;;;;;;1999.90;999.90;;;;;;;3.43;59.47;101907.19;4984582;28;98754;-70
2022/02/09 09:04:05;;;;;;;1999.90;999.90;;;;;;;3.44;59.95;101899.41;4985034;28;97139;-71
2022/02/09 09:06:39;;;;;;;1999.90;999.90;;;;;;;3.45;59.84;101895.97;5000762;28;96880;-72
2022/02/09 09:09:22;;;;;;;1999.90;999.90;;;;;;;3.45;59.85;101901.25;4986998;28;97593;-71
2022/02/09 09:14:59;;;;;;;1999.90;999.90;;;;;;;3.50;59.70;101891.94;4982311;28;98034;-71
2022/02/09 09:17:44;;;;;;;1999.90;999.90;;;;;;;3.54;59.87;101887.78;4983007;28;98201;-71
2022/02/09 09:40:18;;;;;;;1999.90;999.90;;;;;;;3.65;59.29;101890.38;4999883;28;98501;-70
2022/02/09 10:02:40;;;;;;;1999.90;999.90;;;;;;;4.45;56.39;101889.44;5001671;28;97425;-70
2022/02/09 10:31:40;;;;;;;1999.90;999.90;;;;;;;4.66;55.92;101877.63;5004762;28;97861;-69
2022/02/09 10:34:12;;;;;;;1999.90;999.90;;;;;;;4.46;57.10;101875.47;5006833;28;97281;-70
2022/02/09 10:36:44;;;;;;;1999.90;999.90;;;;;;;4.41;57.30;101887.44;5007570;28;96840;-70
2022/02/09 10:39:16;;;;;;;1999.90;999.90;;;;;;;4.39;57.51;101882.06;5003773;28;98208;-71
2022/02/09 10:41:57;;;;;;;1999.90;999.90;;;;;;;4.37;57.20;101877.50;5005401;28;99309;-69
2022/02/09 10:44:27;;;;;;;1999.90;999.90;;;;;;;4.40;57.63;101885.59;5007523;28;97596;-71
2022/02/09 10:46:58;;;;;;;1999.90;999.90;;;;;;;4.39;57.41;101875.91;5008127;28;98587;-69
2022/02/09 10:49:29;;;;;;;1999.90;999.90;;;;;;;4.39;57.73;101875.91;5006549;28;97673;-71
2022/02/09 10:52:08;;;;;;;1999.90;999.90;;;;;;;4.40;57.74;101875.06;5008012;28;97549;-71
2022/02/09 10:54:36;;;;;;;1999.90;999.90;;;;;;;4.41;57.78;101867.25;5006276;28;96939;-71
2022/02/09 10:57:07;;;;;;;1999.90;999.90;;;;;;;4.40;57.63;101883.88;5000346;28;99854;-72
2022/02/09 10:59:37;;;;;;;1999.90;999.90;;;;;;;4.37;58.04;101873.13;5003472;28;98751;-72
2022/02/09 11:02:09;;;;;;;1999.90;999.90;;;;;;;4.33;57.65;101870.22;5005301;28;99727;-69
2022/02/09 11:04:38;;;;;;;1999.90;999.90;;;;;;;4.34;57.80;101867.69;5004155;28;98733;-69
2022/02/09 11:07:06;;;;;;;1999.90;999.90;;;;;;;4.31;57.74;101908.75;5003636;28;97076;-69
2022/02/09 11:09:35;;;;;;;1999.90;999.90;;;;;;;4.57;56.90;101867.38;5001717;28;98827;-70
2022/02/09 11:12:03;;;;;;;1999.90;999.90;;;;;;;4.71;56.28;101855.06;4995379;27;99834;-71
2022/02/09 11:14:31;;;;;;;1999.90;999.90;;;;;;;4.84;55.71;101855.94;5017740;27;97851;-70
2022/02/09 11:17:01;;;;;;;1999.90;999.90;;;;;;;4.61;56.47;101848.31;5000688;28;97292;-69
2022/02/09 11:19:35;;;;;;;1999.90;999.90;;;;;;;4.56;56.63;101854.13;5001782;27;98865;-69
2022/02/09 11:22:09;;;;;;;1999.90;999.90;;;;;;;4.51;56.65;101855.56;5021061;27;97649;-69
2022/02/09 11:24:43;;;;;;;1999.90;999.90;;;;;;;4.51;57.07;101852.94;5006536;28;97677;-71
2022/02/09 11:27:16;;;;;;;1999.90;999.90;;;;;;;4.49;57.14;101859.81;5023815;27;97478;-70
2022/02/09 11:29:54;;;;;;;1999.90;999.90;;;;;;;4.47;57.11;101841.28;5023595;27;98798;-69
2022/02/09 11:32:40;;;;;;;1999.90;999.90;;;;;;;4.77;56.29;101872.16;5019266;28;98952;-69
2022/02/09 11:38:15;;;;;;;1999.90;999.90;;;;;;;5.05;54.89;101848.44;5023351;27;96837;-70
2022/02/09 11:40:50;;;;;;;1999.90;999.90;;;;;;;5.15;54.77;101845.53;5005441;27;97200;-70
2022/02/09 11:43:47;;;;;;;1999.90;999.90;;;;;;;4.91;55.35;101844.03;5023236;27;101094;-69
2022/02/09 11:46:42;;;;;;;1999.90;999.90;;;;;;;5.15;54.76;101832.34;5020172;27;97286;-72
2022/02/09 12:01:07;;;;;;;1999.90;999.90;;;;;;;4.91;55.20;101828.19;4997024;27;98513;-70
2022/02/09 12:09:35;;;;;;;1999.90;999.90;;;;;;;4.64;55.90;101832.72;4989612;28;97120;-69
2022/02/09 12:12:09;;;;;;;1999.90;999.90;;;;;;;4.58;56.11;101831.41;5003072;28;97799;-70
2022/02/09 12:14:53;;;;;;;1999.90;999.90;;;;;;;4.54;55.95;101832.03;5003607;28;100902;-69
2022/02/09 12:17:35;;;;;;;1999.90;999.90;;;;;;;4.52;56.22;101828.41;4987562;28;100421;-70
2022/02/09 12:20:15;;;;;;;1999.90;999.90;;;;;;;4.50;56.53;101824.78;5020934;27;98392;-69
2022/02/09 12:22:48;;;;;;;1999.90;999.90;;;;;;;4.45;56.68;101820.91;5015403;27;97238;-71
2022/02/09 12:25:17;;;;;;;1999.90;999.90;;;;;;;4.41;56.68;101847.91;4999596;28;97824;-69
2022/02/09 12:27:49;;;;;;;1999.90;999.90;;;;;;;4.41;56.47;101824.19;4987255;27;99093;-69
2022/02/09 12:30:22;;;;;;;1999.90;999.90;;;;;;;4.40;56.59;101818.00;5006915;28;97723;-71
2022/02/09 12:32:49;;;;;;;1999.90;999.90;;;;;;;4.43;56.77;101819.91;5002842;28;97477;-70
2022/02/09 12:35:18;;;;;;;1999.90;999.90;;;;;;;4.44;56.86;101821.75;5006334;28;99571;-69
2022/02/09 12:37:47;;;;;;;1999.90;999.90;;;;;;;4.44;56.78;101820.03;4990683;27;97786;-69
2022/02/09 12:40:17;;;;;;;1999.90;999.90;;;;;;;4.45;56.73;101816.56;4998755;28;97256;-69
2022/02/09 12:42:49;;;;;;;1999.90;999.90;;;;;;;4.47;56.67;101821.94;5013353;27;97828;-69
2022/02/09 12:45:19;;;;;;;1999.90;999.90;;;;;;;4.50;56.56;101816.88;5013967;27;97831;-69
2022/02/09 12:47:48;;;;;;;1999.90;999.90;;;;;;;4.54;56.79;101808.31;5011673;27;97802;-70
2022/02/09 12:50:17;;;;;;;1999.90;999.90;;;;;;;4.56;56.74;101809.31;5017469;27;97961;-68
2022/02/09 12:52:47;;;;;;;1999.90;999.90;;;;;;;4.56;56.75;101820.78;5019687;27;96981;-69
2022/02/09 12:55:16;;;;;;;1999.90;999.90;;;;;;;4.56;56.51;101806.69;5017265;27;98998;-69
2022/02/09 12:57:49;;;;;;;1999.90;999.90;;;;;;;4.55;56.80;101804.88;5017490;28;99170;-69
2022/02/09 13:00:26;;;;;;;1999.90;999.90;;;;;;;4.56;56.58;101801.41;5003292;28;96933;-69
2022/02/09 13:02:57;;;;;;;1999.90;999.90;;;;;;;4.58;56.86;101795.41;5000006;27;96832;-69
2022/02/09 13:05:25;;;;;;;1999.90;999.90;;;;;;;4.89;55.67;101808.72;4997992;28;98936;-70
2022/02/09 13:07:55;;;;;;;1999.90;999.90;;;;;;;5.03;55.01;101802.56;5000882;28;99297;-70
2022/02/09 13:10:25;;;;;;;1999.90;999.90;;;;;;;4.82;55.61;101793.38;5001020;27;98010;-69
2022/02/09 13:12:57;;;;;;;1999.90;999.90;;;;;;;4.77;55.77;101784.28;5022357;27;98178;-70
2022/02/09 13:15:31;;;;;;;1999.90;999.90;;;;;;;4.75;55.70;101788.53;5001827;27;97080;-69
2022/02/09 13:23:55;;;;;;;1999.90;999.90;;;;;;;4.68;55.70;101812.72;4998714;27;97349;-69
2022/02/09 13:51:36;;;;;;;1999.90;999.90;;;;;;;4.67;55.88;101801.25;5016487;27;98054;-68
2022/02/09 13:52:58;;;;;;;1999.90;999.90;;;;;;;4.59;55.99;101799.88;4999071;28;97988;-69
2022/02/09 14:04:20;;;;;;;1999.90;999.90;;;;;;;4.73;56.04;101801.63;5003685;28;99633;-71
2022/02/09 14:07:06;;;;;;;1999.90;999.90;;;;;;;4.71;55.79;101787.44;5013602;27;97726;-69
2022/02/09 14:12:40;;;;;;;1999.90;999.90;;;;;;;5.03;54.72;101799.94;5005652;28;98227;-70
2022/02/09 14:15:30;;;;;;;1999.90;999.90;;;;;;;4.84;54.97;101794.38;5019964;27;98151;-69
2022/02/09 14:18:23;;;;;;;1999.90;999.90;;;;;;;4.80;55.35;101808.19;5015390;27;97651;-70
2022/02/09 14:31:32;;;;;;;1999.90;999.90;;;;;;;5.05;54.38;101801.88;5002620;27;99127;-69
2022/02/09 14:35:05;;;;;;;1999.90;999.90;;;;;;;5.00;54.34;101803.28;5017551;27;98703;-70
2022/02/09 14:51:38;;;;;;;1999.90;999.90;;;;;;;4.82;55.45;101819.72;5005924;28;97232;-69
2022/02/09 14:54:15;;;;;;;1999.90;999.90;;;;;;;5.12;54.39;101826.88;5011477;27;97485;-69
2022/02/09 14:56:58;;;;;;;1999.90;999.90;;;;;;;4.92;54.90;101830.00;5002458;28;102949;-70
2022/02/09 14:59:44;;;;;;;1999.90;999.90;;;;;;;4.85;54.98;101822.53;5016421;27;98712;-68
2022/02/09 15:02:17;;;;;;;1999.90;999.90;;;;;;;4.81;55.22;101824.09;5020315;27;97162;-70
2022/02/09 15:05:13;;;;;;;1999.90;999.90;;;;;;;4.79;55.42;101822.19;5006170;27;98327;-70
2022/02/09 15:07:47;;;;;;;1999.90;999.90;;;;;;;4.72;55.74;101814.69;5003752;27;97647;-71
2022/02/09 15:10:21;;;;;;;1999.90;999.90;;;;;;;4.71;55.59;101815.53;5005535;28;99499;-71
2022/02/09 15:12:58;;;;;;;1999.90;999.90;;;;;;;4.66;55.70;101809.06;5005048;27;96926;-70
2022/02/09 15:15:34;;;;;;;1999.90;999.90;;;;;;;4.63;56.20;101815.06;5003281;28;96926;-68
2022/02/09 15:18:32;;;;;;;1999.90;999.90;;;;;;;4.59;55.94;101822.69;5016012;27;97267;-71
2022/02/09 15:21:18;;;;;;;1999.90;999.90;;;;;;;4.56;56.18;101827.75;5019001;27;99679;-71
2022/02/09 15:23:47;;;;;;;1999.90;999.90;;;;;;;4.53;56.31;101822.31;5003838;28;97284;-70
2022/02/09 15:26:19;;;;;;;1999.90;999.90;;;;;;;4.52;56.42;101831.06;5003350;28;98324;-70
2022/02/09 15:28:48;;;;;;;1999.90;999.90;;;;;;;4.49;56.28;101837.03;5017530;27;97572;-69
2022/02/09 15:31:22;;;;;;;1999.90;999.90;;;;;;;4.41;56.56;101832.09;5006799;28;97931;-70
2022/02/09 15:34:01;;;;;;;1999.90;999.90;;;;;;;4.36;56.70;101822.97;5004123;28;97048;-68
2022/02/09 15:36:48;;;;;;;1999.90;999.90;;;;;;;4.32;56.94;101827.16;5021671;27;98846;-67
2022/02/09 15:39:19;;;;;;;1999.90;999.90;;;;;;;4.28;57.08;101829.50;5019335;27;98650;-68
2022/02/09 15:42:03;;;;;;;1999.90;999.90;;;;;;;4.26;56.92;101832.06;5023180;27;98150;-69
2022/02/09 15:58:57;;;;;;;1999.90;999.90;;;;;;;4.32;57.26;101832.41;5014906;27;97710;-71
2022/02/09 16:09:48;;;;;;;1999.90;999.90;;;;;;;4.23;57.35;101843.31;5019547;27;98666;-71
2022/02/09 16:23:33;;;;;;;1999.90;999.90;;;;;;;4.29;57.32;101831.31;5003405;27;100621;-69
2022/02/09 16:33:09;;;;;;;1999.90;999.90;;;;;;;4.29;57.33;101833.94;4996465;27;99150;-69
2022/02/09 16:46:01;;;;;;;1999.90;999.90;;;;;;;4.25;57.64;101830.22;5004818;27;99728;-68
2022/02/09 16:48:31;;;;;;;1999.90;999.90;;;;;;;4.25;57.58;101835.47;5003994;28;102172;-70
2022/02/09 16:51:01;;;;;;;1999.90;999.90;;;;;;;4.24;57.50;101833.69;5021152;27;98821;-69
2022/02/09 16:53:45;;;;;;;1999.90;999.90;;;;;;;4.23;57.34;101822.22;5024250;27;98023;-69
2022/02/09 16:56:39;;;;;;;1999.90;999.90;;;;;;;4.21;57.73;101839.66;5021222;27;99777;-68
2022/02/09 17:21:10;;;;;;;1999.90;999.90;;;;;;;4.69;56.17;101832.97;4997165;28;98110;-69
2022/02/09 17:23:39;;;;;;;1999.90;999.90;;;;;;;4.49;56.89;101844.94;5007778;28;96793;-69
2022/02/09 17:26:08;;;;;;;1999.90;999.90;;;;;;;4.44;56.92;101842.81;5014413;28;97199;-69
2022/02/09 17:28:36;;;;;;;1999.90;999.90;;;;;;;4.38;57.15;101837.16;5017064;28;97922;-69
2022/02/09 17:31:14;;;;;;;1999.90;999.90;;;;;;;4.36;57.16;101849.31;5023635;27;97231;-69
2022/02/09 17:34:04;;;;;;;1999.90;999.90;;;;;;;4.28;57.20;101837.41;5004337;27;97683;-69
2022/02/09 17:36:45;;;;;;;1999.90;999.90;;;;;;;4.21;57.46;101839.66;5003122;27;96813;-68
2022/02/09 17:55:57;;;;;;;1999.90;999.90;;;;;;;3.88;57.88;101840.13;4998537;28;97448;-69
2022/02/09 17:58:29;;;;;;;1999.90;999.90;;;;;;;4.20;57.21;101844.84;4995758;27;99923;-69
2022/02/09 18:00:57;;;;;;;1999.90;999.90;;;;;;;4.01;57.61;101850.63;5002390;28;99286;-70
2022/02/09 18:03:27;;;;;;;1999.90;999.90;;;;;;;3.97;57.77;101850.38;5018880;27;100155;-67
2022/02/09 18:05:58;;;;;;;1999.90;999.90;;;;;;;3.93;57.46;101846.59;5003118;28;97185;-67
2022/02/09 18:08:32;;;;;;;1999.90;999.90;;;;;;;4.23;57.01;101843.31;4998328;28;97198;-68
2022/02/09 18:11:14;;;;;;;1999.90;999.90;;;;;;;4.09;57.62;101837.97;5014136;27;99086;-68
2022/02/09 18:14:10;;;;;;;1999.90;999.90;;;;;;;4.00;57.79;101840.94;4999664;28;99357;-69
2022/02/09 18:28:41;;;;;;;1999.90;999.90;;;;;;;3.74;58.31;101850.56;4960214;28;97668;-70
2022/02/09 18:31:07;;;;;;;1999.90;999.90;;;;;;;3.71;58.15;101846.03;4935867;28;98299;-70
2022/02/09 18:33:51;;;;;;;1999.90;999.90;;;;;;;3.70;58.40;101859.06;4993277;27;98756;-70
2022/02/09 18:39:49;;;;;;;1999.90;999.90;;;;;;;3.67;58.45;101850.97;4984636;28;98869;-70
2022/02/09 18:44:57;;;;;;;1999.90;999.90;;;;;;;3.67;58.34;101849.28;4994579;28;98841;-70
2022/02/09 18:59:24;;;;;;;1999.90;999.90;;;;;;;3.66;58.31;101838.66;5013597;27;98173;-70
2022/02/09 19:02:02;;;;;;;1999.90;999.90;;;;;;;3.65;58.29;101843.00;5002701;28;97546;-70
2022/02/09 19:04:34;;;;;;;1999.90;999.90;;;;;;;3.64;58.46;101851.66;5005560;27;98140;-70
2022/02/09 19:15:47;;;;;;;1999.90;999.90;;;;;;;3.61;58.30;101851.44;5022153;27;99811;-71
2022/02/09 19:18:33;;;;;;;1999.90;999.90;;;;;;;3.62;58.38;101857.63;5020834;27;97906;-69
2022/02/09 19:26:43;;;;;;;1999.90;999.90;;;;;;;3.63;58.76;101852.47;5016758;27;98291;-69
2022/02/09 19:32:23;;;;;;;1999.90;999.90;;;;;;;3.62;58.27;101858.56;5022905;27;97934;-70